sensor_id;sensor_type;location;lat;lon;timestamp;P1;durP1;ratioP1;P2;durP2;ratioP2
24521;SDS011;12680;57.804;12.190;2024-01-30T00:00:01;26.05;;;7.65;;
24521;SDS011;12680;57.804;12.190;2024-01-30T00:02:30;20.48;;;7.53;;
24521;SDS011;12680;57.804;12.190;2024-01-30T00:04:58;41.42;;;8.20;;
24521;SDS011;12680;57.804;12.190;2024-01-30T00:07:24;37.85;;;8.00;;
24521;SDS011;12680;57.804;12.190;2024-01-30T00:09:51;23.27;;;8.77;;
24521;SDS011;12680;57.804;12.190;2024-01-30T00:12:18;23.30;;;9.05;;
24521;SDS011;12680;57.804;12.190;2024-01-30T00:14:45;19.10;;;7.22;;
24521;SDS011;12680;57.804;12.190;2024-01-30T00:17:12;26.20;;;8.68;;
24521;SDS011;12680;57.804;12.190;2024-01-30T00:19:38;23.00;;;8.57;;
24521;SDS011;12680;57.804;12.190;2024-01-30T00:22:05;23.42;;;7.47;;
24521;SDS011;12680;57.804;12.190;2024-01-30T00:24:33;18.63;;;7.25;;
24521;SDS011;12680;57.804;12.190;2024-01-30T00:26:59;20.50;;;5.88;;
24521;SDS011;12680;57.804;12.190;2024-01-30T00:29:26;70.40;;;6.38;;
24521;SDS011;12680;57.804;12.190;2024-01-30T00:31:56;60.38;;;6.35;;
24521;SDS011;12680;57.804;12.190;2024-01-30T00:34:23;37.05;;;5.90;;
24521;SDS011;12680;57.804;12.190;2024-01-30T00:36:50;33.47;;;5.80;;
24521;SDS011;12680;57.804;12.190;2024-01-30T00:39:17;26.08;;;5.60;;
24521;SDS011;12680;57.804;12.190;2024-01-30T00:41:45;13.32;;;5.43;;
24521;SDS011;12680;57.804;12.190;2024-01-30T00:44:12;30.73;;;5.20;;
24521;SDS011;12680;57.804;12.190;2024-01-30T00:46:39;20.67;;;5.60;;
24521;SDS011;12680;57.804;12.190;2024-01-30T00:49:06;21.70;;;5.47;;
24521;SDS011;12680;57.804;12.190;2024-01-30T00:51:33;39.85;;;5.38;;
24521;SDS011;12680;57.804;12.190;2024-01-30T00:54:00;22.40;;;5.13;;
24521;SDS011;12680;57.804;12.190;2024-01-30T00:56:26;27.40;;;5.20;;
24521;SDS011;12680;57.804;12.190;2024-01-30T00:58:53;46.58;;;5.32;;
24521;SDS011;12680;57.804;12.190;2024-01-30T01:01:20;18.10;;;6.22;;
24521;SDS011;12680;57.804;12.190;2024-01-30T01:03:47;54.40;;;6.22;;
24521;SDS011;12680;57.804;12.190;2024-01-30T01:06:15;22.65;;;5.88;;
24521;SDS011;12680;57.804;12.190;2024-01-30T01:08:42;32.00;;;6.00;;
24521;SDS011;12680;57.804;12.190;2024-01-30T01:11:08;22.27;;;6.32;;
24521;SDS011;12680;57.804;12.190;2024-01-30T01:13:36;32.65;;;6.20;;
24521;SDS011;12680;57.804;12.190;2024-01-30T01:16:02;39.72;;;6.68;;
24521;SDS011;12680;57.804;12.190;2024-01-30T01:18:30;65.25;;;6.22;;
24521;SDS011;12680;57.804;12.190;2024-01-30T01:20:57;52.10;;;6.57;;
24521;SDS011;12680;57.804;12.190;2024-01-30T01:23:24;23.80;;;6.05;;
24521;SDS011;12680;57.804;12.190;2024-01-30T01:25:50;21.10;;;6.93;;
24521;SDS011;12680;57.804;12.190;2024-01-30T01:28:17;20.52;;;6.10;;
24521;SDS011;12680;57.804;12.190;2024-01-30T01:30:45;24.63;;;6.43;;
24521;SDS011;12680;57.804;12.190;2024-01-30T01:33:12;32.05;;;6.80;;
24521;SDS011;12680;57.804;12.190;2024-01-30T01:35:41;18.13;;;7.40;;
24521;SDS011;12680;57.804;12.190;2024-01-30T01:38:08;16.55;;;7.05;;
24521;SDS011;12680;57.804;12.190;2024-01-30T01:40:34;17.52;;;6.82;;
24521;SDS011;12680;57.804;12.190;2024-01-30T01:43:03;16.52;;;6.75;;
24521;SDS011;12680;57.804;12.190;2024-01-30T01:45:31;13.75;;;5.97;;
24521;SDS011;12680;57.804;12.190;2024-01-30T01:47:58;14.30;;;5.93;;
24521;SDS011;12680;57.804;12.190;2024-01-30T01:50:25;11.93;;;6.28;;
24521;SDS011;12680;57.804;12.190;2024-01-30T01:52:52;19.55;;;7.50;;
24521;SDS011;12680;57.804;12.190;2024-01-30T01:55:20;16.63;;;7.15;;
24521;SDS011;12680;57.804;12.190;2024-01-30T01:57:48;15.68;;;6.78;;
24521;SDS011;12680;57.804;12.190;2024-01-30T02:00:15;15.45;;;6.50;;
24521;SDS011;12680;57.804;12.190;2024-01-30T02:02:43;13.43;;;6.45;;
24521;SDS011;12680;57.804;12.190;2024-01-30T02:05:11;16.95;;;6.53;;
24521;SDS011;12680;57.804;12.190;2024-01-30T02:07:38;14.55;;;6.65;;
24521;SDS011;12680;57.804;12.190;2024-01-30T02:10:06;17.23;;;6.40;;
24521;SDS011;12680;57.804;12.190;2024-01-30T02:12:35;13.60;;;6.25;;
24521;SDS011;12680;57.804;12.190;2024-01-30T02:15:02;14.15;;;7.07;;
24521;SDS011;12680;57.804;12.190;2024-01-30T02:17:29;16.08;;;7.15;;
24521;SDS011;12680;57.804;12.190;2024-01-30T02:19:55;16.98;;;7.30;;
24521;SDS011;12680;57.804;12.190;2024-01-30T02:22:22;12.98;;;6.07;;
24521;SDS011;12680;57.804;12.190;2024-01-30T02:24:50;13.90;;;7.07;;
24521;SDS011;12680;57.804;12.190;2024-01-30T02:27:17;17.33;;;7.60;;
24521;SDS011;12680;57.804;12.190;2024-01-30T02:29:43;14.82;;;6.55;;
24521;SDS011;12680;57.804;12.190;2024-01-30T02:32:11;14.98;;;7.00;;
24521;SDS011;12680;57.804;12.190;2024-01-30T02:34:37;14.75;;;7.40;;
24521;SDS011;12680;57.804;12.190;2024-01-30T02:37:04;13.50;;;6.78;;
24521;SDS011;12680;57.804;12.190;2024-01-30T02:39:31;11.93;;;5.90;;
24521;SDS011;12680;57.804;12.190;2024-01-30T02:41:58;25.08;;;6.72;;
24521;SDS011;12680;57.804;12.190;2024-01-30T02:44:25;13.40;;;6.30;;
24521;SDS011;12680;57.804;12.190;2024-01-30T02:46:52;17.02;;;6.80;;
24521;SDS011;12680;57.804;12.190;2024-01-30T02:49:20;12.73;;;6.25;;
24521;SDS011;12680;57.804;12.190;2024-01-30T02:51:48;14.38;;;7.30;;
24521;SDS011;12680;57.804;12.190;2024-01-30T02:54:15;16.88;;;6.72;;
24521;SDS011;12680;57.804;12.190;2024-01-30T02:56:42;13.68;;;6.63;;
24521;SDS011;12680;57.804;12.190;2024-01-30T02:59:09;16.15;;;7.03;;
24521;SDS011;12680;57.804;12.190;2024-01-30T03:01:45;18.13;;;7.15;;
24521;SDS011;12680;57.804;12.190;2024-01-30T03:04:13;16.02;;;6.88;;
24521;SDS011;12680;57.804;12.190;2024-01-30T03:06:44;14.55;;;6.55;;
24521;SDS011;12680;57.804;12.190;2024-01-30T03:09:15;16.02;;;7.07;;
24521;SDS011;12680;57.804;12.190;2024-01-30T03:11:42;12.68;;;6.05;;
24521;SDS011;12680;57.804;12.190;2024-01-30T03:14:09;15.85;;;6.85;;
24521;SDS011;12680;57.804;12.190;2024-01-30T03:16:39;13.10;;;6.18;;
24521;SDS011;12680;57.804;12.190;2024-01-30T03:19:06;11.90;;;6.55;;
24521;SDS011;12680;57.804;12.190;2024-01-30T03:21:36;13.02;;;6.05;;
24521;SDS011;12680;57.804;12.190;2024-01-30T03:24:03;12.23;;;6.63;;
24521;SDS011;12680;57.804;12.190;2024-01-30T03:26:30;12.13;;;5.90;;
24521;SDS011;12680;57.804;12.190;2024-01-30T03:28:56;12.50;;;5.75;;
24521;SDS011;12680;57.804;12.190;2024-01-30T03:31:23;12.13;;;6.32;;
24521;SDS011;12680;57.804;12.190;2024-01-30T03:33:50;19.90;;;6.43;;
24521;SDS011;12680;57.804;12.190;2024-01-30T03:36:17;12.68;;;6.18;;
24521;SDS011;12680;57.804;12.190;2024-01-30T03:38:44;12.57;;;5.72;;
24521;SDS011;12680;57.804;12.190;2024-01-30T03:41:11;13.48;;;6.15;;
24521;SDS011;12680;57.804;12.190;2024-01-30T03:43:38;11.68;;;5.07;;
24521;SDS011;12680;57.804;12.190;2024-01-30T03:46:05;12.25;;;6.30;;
24521;SDS011;12680;57.804;12.190;2024-01-30T03:48:32;12.05;;;5.50;;
24521;SDS011;12680;57.804;12.190;2024-01-30T03:50:59;10.50;;;6.25;;
24521;SDS011;12680;57.804;12.190;2024-01-30T03:53:25;14.85;;;6.25;;
24521;SDS011;12680;57.804;12.190;2024-01-30T03:55:52;9.80;;;5.70;;
24521;SDS011;12680;57.804;12.190;2024-01-30T03:58:19;12.57;;;5.40;;
24521;SDS011;12680;57.804;12.190;2024-01-30T04:00:46;10.10;;;5.70;;
24521;SDS011;12680;57.804;12.190;2024-01-30T04:03:14;9.77;;;5.57;;
24521;SDS011;12680;57.804;12.190;2024-01-30T04:05:42;11.27;;;5.55;;
24521;SDS011;12680;57.804;12.190;2024-01-30T04:08:09;8.55;;;5.45;;
24521;SDS011;12680;57.804;12.190;2024-01-30T04:10:36;11.50;;;5.78;;
24521;SDS011;12680;57.804;12.190;2024-01-30T04:13:02;10.43;;;6.03;;
24521;SDS011;12680;57.804;12.190;2024-01-30T04:15:30;10.00;;;5.68;;
24521;SDS011;12680;57.804;12.190;2024-01-30T04:17:57;11.30;;;6.18;;
24521;SDS011;12680;57.804;12.190;2024-01-30T04:20:25;14.05;;;6.63;;
24521;SDS011;12680;57.804;12.190;2024-01-30T04:22:52;11.27;;;5.72;;
24521;SDS011;12680;57.804;12.190;2024-01-30T04:25:19;14.50;;;6.78;;
24521;SDS011;12680;57.804;12.190;2024-01-30T04:27:46;11.68;;;6.30;;
24521;SDS011;12680;57.804;12.190;2024-01-30T04:30:13;13.10;;;6.60;;
24521;SDS011;12680;57.804;12.190;2024-01-30T04:32:39;14.23;;;6.35;;
24521;SDS011;12680;57.804;12.190;2024-01-30T04:35:06;14.63;;;7.18;;
24521;SDS011;12680;57.804;12.190;2024-01-30T04:37:37;15.13;;;7.15;;
24521;SDS011;12680;57.804;12.190;2024-01-30T04:40:04;13.65;;;6.32;;
24521;SDS011;12680;57.804;12.190;2024-01-30T04:42:31;15.65;;;6.63;;
24521;SDS011;12680;57.804;12.190;2024-01-30T04:44:58;14.65;;;6.72;;
24521;SDS011;12680;57.804;12.190;2024-01-30T04:47:25;16.35;;;7.72;;
24521;SDS011;12680;57.804;12.190;2024-01-30T04:49:52;13.23;;;6.55;;
24521;SDS011;12680;57.804;12.190;2024-01-30T04:52:19;18.05;;;7.82;;
24521;SDS011;12680;57.804;12.190;2024-01-30T04:54:47;16.02;;;6.75;;
24521;SDS011;12680;57.804;12.190;2024-01-30T04:57:13;14.07;;;7.18;;
24521;SDS011;12680;57.804;12.190;2024-01-30T04:59:40;14.02;;;7.03;;
24521;SDS011;12680;57.804;12.190;2024-01-30T05:02:07;15.95;;;7.68;;
24521;SDS011;12680;57.804;12.190;2024-01-30T05:04:34;14.43;;;7.18;;
24521;SDS011;12680;57.804;12.190;2024-01-30T05:07:01;14.73;;;7.25;;
24521;SDS011;12680;57.804;12.190;2024-01-30T05:09:28;11.85;;;6.18;;
24521;SDS011;12680;57.804;12.190;2024-01-30T05:11:55;13.32;;;5.85;;
24521;SDS011;12680;57.804;12.190;2024-01-30T05:14:22;15.40;;;6.28;;
24521;SDS011;12680;57.804;12.190;2024-01-30T05:16:48;13.10;;;6.55;;
24521;SDS011;12680;57.804;12.190;2024-01-30T05:19:15;12.77;;;6.20;;
24521;SDS011;12680;57.804;12.190;2024-01-30T05:21:43;13.25;;;6.13;;
24521;SDS011;12680;57.804;12.190;2024-01-30T05:24:10;12.50;;;6.35;;
24521;SDS011;12680;57.804;12.190;2024-01-30T05:26:37;14.70;;;6.35;;
24521;SDS011;12680;57.804;12.190;2024-01-30T05:29:04;13.32;;;6.03;;
24521;SDS011;12680;57.804;12.190;2024-01-30T05:31:32;17.90;;;6.75;;
24521;SDS011;12680;57.804;12.190;2024-01-30T05:34:01;13.98;;;6.30;;
24521;SDS011;12680;57.804;12.190;2024-01-30T05:36:28;16.10;;;6.65;;
24521;SDS011;12680;57.804;12.190;2024-01-30T05:38:55;12.27;;;6.03;;
24521;SDS011;12680;57.804;12.190;2024-01-30T05:41:22;15.50;;;7.20;;
24521;SDS011;12680;57.804;12.190;2024-01-30T05:43:49;17.08;;;7.00;;
24521;SDS011;12680;57.804;12.190;2024-01-30T05:46:16;13.18;;;6.20;;
24521;SDS011;12680;57.804;12.190;2024-01-30T05:48:43;12.40;;;5.68;;
24521;SDS011;12680;57.804;12.190;2024-01-30T05:51:09;13.65;;;6.18;;
24521;SDS011;12680;57.804;12.190;2024-01-30T05:53:36;12.45;;;6.35;;
24521;SDS011;12680;57.804;12.190;2024-01-30T05:56:03;14.65;;;6.88;;
24521;SDS011;12680;57.804;12.190;2024-01-30T05:58:30;13.88;;;6.72;;
24521;SDS011;12680;57.804;12.190;2024-01-30T06:00:57;11.18;;;5.85;;
24521;SDS011;12680;57.804;12.190;2024-01-30T06:03:24;16.88;;;6.55;;
24521;SDS011;12680;57.804;12.190;2024-01-30T06:05:51;13.75;;;6.30;;
24521;SDS011;12680;57.804;12.190;2024-01-30T06:08:18;12.32;;;6.40;;
24521;SDS011;12680;57.804;12.190;2024-01-30T06:10:45;10.98;;;6.18;;
24521;SDS011;12680;57.804;12.190;2024-01-30T06:13:12;14.90;;;6.85;;
24521;SDS011;12680;57.804;12.190;2024-01-30T06:15:39;12.15;;;5.80;;
24521;SDS011;12680;57.804;12.190;2024-01-30T06:18:06;10.93;;;5.53;;
24521;SDS011;12680;57.804;12.190;2024-01-30T06:20:33;11.88;;;6.50;;
24521;SDS011;12680;57.804;12.190;2024-01-30T06:23:00;11.57;;;5.47;;
24521;SDS011;12680;57.804;12.190;2024-01-30T06:25:26;11.75;;;6.20;;
24521;SDS011;12680;57.804;12.190;2024-01-30T06:27:54;10.32;;;5.50;;
24521;SDS011;12680;57.804;12.190;2024-01-30T06:30:20;8.65;;;5.22;;
24521;SDS011;12680;57.804;12.190;2024-01-30T06:32:47;10.45;;;5.70;;
24521;SDS011;12680;57.804;12.190;2024-01-30T06:35:14;9.23;;;4.93;;
24521;SDS011;12680;57.804;12.190;2024-01-30T06:37:43;9.05;;;5.10;;
24521;SDS011;12680;57.804;12.190;2024-01-30T06:40:10;9.95;;;5.03;;
24521;SDS011;12680;57.804;12.190;2024-01-30T06:42:38;9.00;;;5.45;;
24521;SDS011;12680;57.804;12.190;2024-01-30T06:45:04;8.52;;;4.97;;
24521;SDS011;12680;57.804;12.190;2024-01-30T06:47:32;8.18;;;4.80;;
24521;SDS011;12680;57.804;12.190;2024-01-30T06:49:58;9.18;;;5.55;;
24521;SDS011;12680;57.804;12.190;2024-01-30T06:52:26;10.70;;;5.13;;
24521;SDS011;12680;57.804;12.190;2024-01-30T06:54:53;9.38;;;4.65;;
24521;SDS011;12680;57.804;12.190;2024-01-30T06:57:20;7.55;;;4.63;;
24521;SDS011;12680;57.804;12.190;2024-01-30T06:59:47;6.97;;;4.68;;
24521;SDS011;12680;57.804;12.190;2024-01-30T07:02:14;11.00;;;5.10;;
24521;SDS011;12680;57.804;12.190;2024-01-30T07:04:41;7.90;;;4.78;;
24521;SDS011;12680;57.804;12.190;2024-01-30T07:09:41;11.65;;;5.57;;
24521;SDS011;12680;57.804;12.190;2024-01-30T07:12:08;11.55;;;5.32;;
24521;SDS011;12680;57.804;12.190;2024-01-30T07:14:35;9.25;;;5.13;;
24521;SDS011;12680;57.804;12.190;2024-01-30T07:17:02;11.07;;;4.97;;
24521;SDS011;12680;57.804;12.190;2024-01-30T07:19:29;12.63;;;5.43;;
24521;SDS011;12680;57.804;12.190;2024-01-30T07:21:56;10.82;;;5.15;;
24521;SDS011;12680;57.804;12.190;2024-01-30T07:24:22;8.63;;;4.55;;
24521;SDS011;12680;57.804;12.190;2024-01-30T07:26:49;8.00;;;4.70;;
24521;SDS011;12680;57.804;12.190;2024-01-30T07:29:16;11.43;;;5.03;;
24521;SDS011;12680;57.804;12.190;2024-01-30T07:31:43;12.10;;;6.05;;
24521;SDS011;12680;57.804;12.190;2024-01-30T07:34:11;13.63;;;5.53;;
24521;SDS011;12680;57.804;12.190;2024-01-30T07:36:38;10.13;;;5.10;;
24521;SDS011;12680;57.804;12.190;2024-01-30T07:39:05;12.73;;;5.60;;
24521;SDS011;12680;57.804;12.190;2024-01-30T07:41:32;13.30;;;5.82;;
24521;SDS011;12680;57.804;12.190;2024-01-30T07:43:59;10.15;;;5.43;;
24521;SDS011;12680;57.804;12.190;2024-01-30T07:46:26;8.68;;;5.30;;
24521;SDS011;12680;57.804;12.190;2024-01-30T07:48:53;11.35;;;5.53;;
24521;SDS011;12680;57.804;12.190;2024-01-30T07:51:22;13.95;;;6.18;;
24521;SDS011;12680;57.804;12.190;2024-01-30T07:53:49;12.38;;;6.30;;
24521;SDS011;12680;57.804;12.190;2024-01-30T07:56:16;12.07;;;5.93;;
24521;SDS011;12680;57.804;12.190;2024-01-30T07:58:43;18.73;;;7.03;;
24521;SDS011;12680;57.804;12.190;2024-01-30T08:01:10;12.27;;;6.00;;
24521;SDS011;12680;57.804;12.190;2024-01-30T08:03:37;13.27;;;6.18;;
24521;SDS011;12680;57.804;12.190;2024-01-30T08:06:07;10.65;;;5.90;;
24521;SDS011;12680;57.804;12.190;2024-01-30T08:08:33;13.27;;;6.03;;
24521;SDS011;12680;57.804;12.190;2024-01-30T08:11:00;14.57;;;6.90;;
24521;SDS011;12680;57.804;12.190;2024-01-30T08:13:27;12.00;;;5.30;;
24521;SDS011;12680;57.804;12.190;2024-01-30T08:15:54;12.98;;;6.10;;
24521;SDS011;12680;57.804;12.190;2024-01-30T08:18:21;11.75;;;5.60;;
24521;SDS011;12680;57.804;12.190;2024-01-30T08:20:48;13.55;;;5.75;;
24521;SDS011;12680;57.804;12.190;2024-01-30T08:23:15;10.98;;;4.93;;
24521;SDS011;12680;57.804;12.190;2024-01-30T08:25:42;12.02;;;4.90;;
24521;SDS011;12680;57.804;12.190;2024-01-30T08:28:08;9.85;;;4.72;;
24521;SDS011;12680;57.804;12.190;2024-01-30T08:30:36;11.07;;;5.90;;
24521;SDS011;12680;57.804;12.190;2024-01-30T08:33:03;5.50;;;3.85;;
24521;SDS011;12680;57.804;12.190;2024-01-30T08:35:30;10.63;;;4.57;;
24521;SDS011;12680;57.804;12.190;2024-01-30T08:37:59;8.70;;;4.25;;
24521;SDS011;12680;57.804;12.190;2024-01-30T08:40:26;10.85;;;4.85;;
24521;SDS011;12680;57.804;12.190;2024-01-30T08:42:55;10.57;;;4.63;;
24521;SDS011;12680;57.804;12.190;2024-01-30T08:45:22;10.93;;;5.40;;
24521;SDS011;12680;57.804;12.190;2024-01-30T08:47:48;12.25;;;5.40;;
24521;SDS011;12680;57.804;12.190;2024-01-30T08:50:15;8.90;;;4.85;;
24521;SDS011;12680;57.804;12.190;2024-01-30T08:52:42;8.88;;;4.75;;
24521;SDS011;12680;57.804;12.190;2024-01-30T08:55:11;8.98;;;4.53;;
24521;SDS011;12680;57.804;12.190;2024-01-30T08:57:38;12.05;;;5.47;;
24521;SDS011;12680;57.804;12.190;2024-01-30T09:00:05;11.25;;;5.10;;
24521;SDS011;12680;57.804;12.190;2024-01-30T09:02:35;9.38;;;4.88;;
24521;SDS011;12680;57.804;12.190;2024-01-30T09:05:02;9.55;;;4.93;;
24521;SDS011;12680;57.804;12.190;2024-01-30T09:07:29;9.27;;;5.50;;
24521;SDS011;12680;57.804;12.190;2024-01-30T09:09:56;8.63;;;5.15;;
24521;SDS011;12680;57.804;12.190;2024-01-30T09:12:23;7.38;;;4.53;;
24521;SDS011;12680;57.804;12.190;2024-01-30T09:14:49;9.07;;;4.78;;
24521;SDS011;12680;57.804;12.190;2024-01-30T09:17:16;9.32;;;4.60;;
24521;SDS011;12680;57.804;12.190;2024-01-30T09:19:43;9.60;;;4.80;;
24521;SDS011;12680;57.804;12.190;2024-01-30T09:22:10;8.38;;;5.07;;
24521;SDS011;12680;57.804;12.190;2024-01-30T09:24:37;8.63;;;4.70;;
24521;SDS011;12680;57.804;12.190;2024-01-30T09:27:04;11.32;;;4.93;;
24521;SDS011;12680;57.804;12.190;2024-01-30T09:29:30;12.02;;;5.55;;
24521;SDS011;12680;57.804;12.190;2024-01-30T09:31:59;9.07;;;5.22;;
24521;SDS011;12680;57.804;12.190;2024-01-30T09:34:26;7.85;;;4.65;;
24521;SDS011;12680;57.804;12.190;2024-01-30T09:36:53;7.82;;;4.35;;
24521;SDS011;12680;57.804;12.190;2024-01-30T09:39:19;6.32;;;4.22;;
24521;SDS011;12680;57.804;12.190;2024-01-30T09:41:51;7.72;;;4.38;;
24521;SDS011;12680;57.804;12.190;2024-01-30T09:44:28;11.88;;;4.60;;
24521;SDS011;12680;57.804;12.190;2024-01-30T09:46:56;6.53;;;4.55;;
24521;SDS011;12680;57.804;12.190;2024-01-30T09:49:30;10.40;;;4.75;;
24521;SDS011;12680;57.804;12.190;2024-01-30T09:51:59;7.25;;;4.40;;
24521;SDS011;12680;57.804;12.190;2024-01-30T09:54:28;8.35;;;5.32;;
24521;SDS011;12680;57.804;12.190;2024-01-30T09:57:01;7.25;;;4.78;;
24521;SDS011;12680;57.804;12.190;2024-01-30T09:59:28;7.25;;;5.00;;
24521;SDS011;12680;57.804;12.190;2024-01-30T10:01:55;8.75;;;4.75;;
24521;SDS011;12680;57.804;12.190;2024-01-30T10:04:23;9.70;;;4.93;;
24521;SDS011;12680;57.804;12.190;2024-01-30T10:06:50;9.55;;;5.05;;
24521;SDS011;12680;57.804;12.190;2024-01-30T10:09:17;8.57;;;4.93;;
24521;SDS011;12680;57.804;12.190;2024-01-30T10:11:44;9.05;;;5.32;;
24521;SDS011;12680;57.804;12.190;2024-01-30T10:14:11;6.88;;;4.68;;
24521;SDS011;12680;57.804;12.190;2024-01-30T10:16:38;8.35;;;5.45;;
24521;SDS011;12680;57.804;12.190;2024-01-30T10:19:05;9.95;;;5.45;;
24521;SDS011;12680;57.804;12.190;2024-01-30T10:21:32;11.52;;;5.50;;
24521;SDS011;12680;57.804;12.190;2024-01-30T10:23:59;10.73;;;5.85;;
24521;SDS011;12680;57.804;12.190;2024-01-30T10:26:26;10.43;;;6.00;;
24521;SDS011;12680;57.804;12.190;2024-01-30T10:28:53;10.07;;;5.22;;
24521;SDS011;12680;57.804;12.190;2024-01-30T10:31:19;8.05;;;4.65;;
24521;SDS011;12680;57.804;12.190;2024-01-30T10:33:46;8.13;;;5.00;;
24521;SDS011;12680;57.804;12.190;2024-01-30T10:36:13;9.07;;;5.38;;
24521;SDS011;12680;57.804;12.190;2024-01-30T10:38:46;10.48;;;5.63;;
24521;SDS011;12680;57.804;12.190;2024-01-30T10:41:17;8.30;;;5.22;;
24521;SDS011;12680;57.804;12.190;2024-01-30T10:44:01;8.00;;;5.03;;
24521;SDS011;12680;57.804;12.190;2024-01-30T10:46:34;7.38;;;5.18;;
24521;SDS011;12680;57.804;12.190;2024-01-30T10:49:04;6.15;;;3.90;;
24521;SDS011;12680;57.804;12.190;2024-01-30T10:51:32;8.13;;;4.32;;
24521;SDS011;12680;57.804;12.190;2024-01-30T10:54:00;7.22;;;4.28;;
24521;SDS011;12680;57.804;12.190;2024-01-30T10:56:28;5.82;;;3.90;;
24521;SDS011;12680;57.804;12.190;2024-01-30T10:58:57;7.28;;;4.60;;
24521;SDS011;12680;57.804;12.190;2024-01-30T11:01:24;6.28;;;4.47;;
24521;SDS011;12680;57.804;12.190;2024-01-30T11:03:52;7.82;;;4.43;;
24521;SDS011;12680;57.804;12.190;2024-01-30T11:06:23;5.82;;;3.65;;
24521;SDS011;12680;57.804;12.190;2024-01-30T11:09:02;6.82;;;4.55;;
24521;SDS011;12680;57.804;12.190;2024-01-30T11:11:30;6.97;;;4.70;;
24521;SDS011;12680;57.804;12.190;2024-01-30T11:14:00;6.22;;;4.20;;
24521;SDS011;12680;57.804;12.190;2024-01-30T11:16:30;6.68;;;4.82;;
24521;SDS011;12680;57.804;12.190;2024-01-30T11:21:27;7.80;;;4.95;;
24521;SDS011;12680;57.804;12.190;2024-01-30T11:23:54;7.18;;;4.47;;
24521;SDS011;12680;57.804;12.190;2024-01-30T11:26:23;7.50;;;4.43;;
24521;SDS011;12680;57.804;12.190;2024-01-30T11:28:54;8.68;;;4.80;;
24521;SDS011;12680;57.804;12.190;2024-01-30T11:31:21;9.93;;;5.10;;
24521;SDS011;12680;57.804;12.190;2024-01-30T11:33:52;9.93;;;5.10;;
24521;SDS011;12680;57.804;12.190;2024-01-30T11:36:20;9.15;;;5.30;;
24521;SDS011;12680;57.804;12.190;2024-01-30T11:38:51;8.63;;;4.90;;
24521;SDS011;12680;57.804;12.190;2024-01-30T11:41:18;8.10;;;4.82;;
24521;SDS011;12680;57.804;12.190;2024-01-30T11:43:52;8.35;;;4.78;;
24521;SDS011;12680;57.804;12.190;2024-01-30T11:46:20;9.85;;;5.28;;
24521;SDS011;12680;57.804;12.190;2024-01-30T11:48:47;7.47;;;4.80;;
24521;SDS011;12680;57.804;12.190;2024-01-30T11:51:14;8.95;;;5.18;;
24521;SDS011;12680;57.804;12.190;2024-01-30T11:53:41;9.80;;;5.15;;
24521;SDS011;12680;57.804;12.190;2024-01-30T11:56:08;11.57;;;5.65;;
24521;SDS011;12680;57.804;12.190;2024-01-30T11:58:35;9.77;;;5.20;;
24521;SDS011;12680;57.804;12.190;2024-01-30T12:01:01;9.77;;;5.70;;
24521;SDS011;12680;57.804;12.190;2024-01-30T12:03:28;8.65;;;4.82;;
24521;SDS011;12680;57.804;12.190;2024-01-30T12:05:56;10.48;;;5.53;;
24521;SDS011;12680;57.804;12.190;2024-01-30T12:08:26;12.45;;;5.72;;
24521;SDS011;12680;57.804;12.190;2024-01-30T12:10:57;12.65;;;5.65;;
24521;SDS011;12680;57.804;12.190;2024-01-30T12:13:32;10.05;;;5.18;;
24521;SDS011;12680;57.804;12.190;2024-01-30T12:15:59;11.70;;;5.40;;
24521;SDS011;12680;57.804;12.190;2024-01-30T12:18:27;10.13;;;5.00;;
24521;SDS011;12680;57.804;12.190;2024-01-30T12:20:57;8.68;;;5.18;;
24521;SDS011;12680;57.804;12.190;2024-01-30T12:23:27;10.48;;;5.55;;
24521;SDS011;12680;57.804;12.190;2024-01-30T12:25:55;11.63;;;5.95;;
24521;SDS011;12680;57.804;12.190;2024-01-30T12:28:23;17.52;;;6.40;;
24521;SDS011;12680;57.804;12.190;2024-01-30T12:30:49;13.15;;;5.00;;
24521;SDS011;12680;57.804;12.190;2024-01-30T12:33:17;14.18;;;5.30;;
24521;SDS011;12680;57.804;12.190;2024-01-30T12:35:47;12.77;;;5.77;;
24521;SDS011;12680;57.804;12.190;2024-01-30T12:38:27;11.30;;;5.68;;
24521;SDS011;12680;57.804;12.190;2024-01-30T12:40:54;11.10;;;5.95;;
24521;SDS011;12680;57.804;12.190;2024-01-30T12:43:22;10.23;;;4.93;;
24521;SDS011;12680;57.804;12.190;2024-01-30T12:46:03;13.23;;;6.28;;
24521;SDS011;12680;57.804;12.190;2024-01-30T12:48:30;10.75;;;6.03;;
24521;SDS011;12680;57.804;12.190;2024-01-30T12:50:57;12.23;;;6.10;;
24521;SDS011;12680;57.804;12.190;2024-01-30T12:53:25;14.38;;;5.85;;
24521;SDS011;12680;57.804;12.190;2024-01-30T12:55:52;14.50;;;6.00;;
24521;SDS011;12680;57.804;12.190;2024-01-30T12:58:20;16.08;;;6.13;;
24521;SDS011;12680;57.804;12.190;2024-01-30T13:00:47;15.30;;;6.00;;
24521;SDS011;12680;57.804;12.190;2024-01-30T13:03:14;17.70;;;6.22;;
24521;SDS011;12680;57.804;12.190;2024-01-30T13:05:41;18.25;;;6.57;;
24521;SDS011;12680;57.804;12.190;2024-01-30T13:08:09;15.23;;;6.72;;
24521;SDS011;12680;57.804;12.190;2024-01-30T13:10:35;15.30;;;6.70;;
24521;SDS011;12680;57.804;12.190;2024-01-30T13:13:02;13.05;;;6.60;;
24521;SDS011;12680;57.804;12.190;2024-01-30T13:15:29;13.00;;;6.50;;
24521;SDS011;12680;57.804;12.190;2024-01-30T13:17:56;13.18;;;5.95;;
24521;SDS011;12680;57.804;12.190;2024-01-30T13:20:23;16.25;;;6.78;;
24521;SDS011;12680;57.804;12.190;2024-01-30T13:22:50;18.42;;;6.55;;
24521;SDS011;12680;57.804;12.190;2024-01-30T13:25:17;15.10;;;5.32;;
24521;SDS011;12680;57.804;12.190;2024-01-30T13:27:44;16.17;;;6.80;;
24521;SDS011;12680;57.804;12.190;2024-01-30T13:30:10;11.27;;;6.10;;
24521;SDS011;12680;57.804;12.190;2024-01-30T13:32:37;13.45;;;6.30;;
24521;SDS011;12680;57.804;12.190;2024-01-30T13:35:04;13.18;;;6.15;;
24521;SDS011;12680;57.804;12.190;2024-01-30T13:37:32;19.35;;;6.40;;
24521;SDS011;12680;57.804;12.190;2024-01-30T13:39:59;12.20;;;6.22;;
24521;SDS011;12680;57.804;12.190;2024-01-30T13:42:28;11.38;;;5.70;;
24521;SDS011;12680;57.804;12.190;2024-01-30T13:44:54;13.90;;;6.30;;
24521;SDS011;12680;57.804;12.190;2024-01-30T13:47:21;13.15;;;5.97;;
24521;SDS011;12680;57.804;12.190;2024-01-30T13:49:48;13.40;;;6.45;;
24521;SDS011;12680;57.804;12.190;2024-01-30T13:52:15;13.18;;;6.07;;
24521;SDS011;12680;57.804;12.190;2024-01-30T13:54:42;15.77;;;7.20;;
24521;SDS011;12680;57.804;12.190;2024-01-30T13:57:09;13.38;;;7.15;;
24521;SDS011;12680;57.804;12.190;2024-01-30T13:59:37;14.98;;;6.93;;
24521;SDS011;12680;57.804;12.190;2024-01-30T14:02:05;15.13;;;7.28;;
24521;SDS011;12680;57.804;12.190;2024-01-30T14:04:34;16.80;;;6.93;;
24521;SDS011;12680;57.804;12.190;2024-01-30T14:07:04;13.85;;;7.18;;
24521;SDS011;12680;57.804;12.190;2024-01-30T14:09:32;15.80;;;7.47;;
24521;SDS011;12680;57.804;12.190;2024-01-30T14:12:00;18.48;;;7.63;;
24521;SDS011;12680;57.804;12.190;2024-01-30T14:14:27;15.75;;;7.88;;
24521;SDS011;12680;57.804;12.190;2024-01-30T14:16:53;18.92;;;8.05;;
24521;SDS011;12680;57.804;12.190;2024-01-30T14:19:21;15.32;;;7.80;;
24521;SDS011;12680;57.804;12.190;2024-01-30T14:21:48;14.13;;;8.20;;
24521;SDS011;12680;57.804;12.190;2024-01-30T14:24:15;20.73;;;8.77;;
24521;SDS011;12680;57.804;12.190;2024-01-30T14:26:41;16.77;;;9.07;;
24521;SDS011;12680;57.804;12.190;2024-01-30T14:29:09;21.83;;;9.68;;
24521;SDS011;12680;57.804;12.190;2024-01-30T14:31:35;19.00;;;8.68;;